createdAt,value
2023-09-18T00:02:14.947Z,26.81
2023-09-18T00:04:45.782Z,26.74
2023-09-18T00:07:17.208Z,26.74
2023-09-18T00:09:47.838Z,26.74
2023-09-18T00:12:18.452Z,26.71
2023-09-18T00:14:52.458Z,26.70
2023-09-18T00:17:26.391Z,26.69
2023-09-18T00:19:57.156Z,26.65
2023-09-18T00:22:28.437Z,26.63
2023-09-18T00:24:59.889Z,26.60
2023-09-18T00:27:31.103Z,26.60
2023-09-18T00:30:02.381Z,26.56
2023-09-18T00:32:34.127Z,26.57
2023-09-18T00:35:05.497Z,26.53
2023-09-18T00:37:36.323Z,26.49
2023-09-18T00:40:07.893Z,26.49
2023-09-18T00:42:38.742Z,26.40
2023-09-18T00:45:09.708Z,26.35
2023-09-18T00:47:41.327Z,26.26
2023-09-18T00:50:15.226Z,26.19
2023-09-18T00:52:46.802Z,26.19
2023-09-18T00:55:18.722Z,26.19
2023-09-18T00:57:50.052Z,26.13
2023-09-18T01:00:21.536Z,26.13
2023-09-18T01:02:53.586Z,26.08
2023-09-18T01:05:24.420Z,26.06
2023-09-18T01:07:55.196Z,26.03
2023-09-18T01:10:31.079Z,25.98
2023-09-18T01:13:18.189Z,25.98
2023-09-18T01:16:06.541Z,25.96
2023-09-18T01:18:37.981Z,25.95
2023-09-18T01:21:08.959Z,25.93
2023-09-18T01:23:39.510Z,25.89
2023-09-18T01:26:10.683Z,25.84
2023-09-18T01:28:41.048Z,25.77
2023-09-18T01:31:11.585Z,25.68
2023-09-18T01:33:43.481Z,25.57
2023-09-18T01:36:16.275Z,25.50
2023-09-18T01:38:47.716Z,25.42
2023-09-18T01:41:18.129Z,25.41
2023-09-18T01:43:48.313Z,25.35
2023-09-18T01:46:18.808Z,25.27
2023-09-18T01:48:50.458Z,25.24
2023-09-18T01:51:21.998Z,25.13
2023-09-18T01:53:52.200Z,25.00
2023-09-18T01:56:22.488Z,24.87
2023-09-18T01:58:53.167Z,24.82
2023-09-18T02:01:25.213Z,24.80
2023-09-18T02:04:23.361Z,24.75
2023-09-18T02:06:46.819Z,24.65
2023-09-18T02:09:17.062Z,24.58
2023-09-18T02:11:50.381Z,24.60
2023-09-18T02:14:20.735Z,24.51
2023-09-18T02:16:51.622Z,24.49
2023-09-18T02:19:22.572Z,24.35
2023-09-18T02:21:52.777Z,24.35
2023-09-18T02:24:22.996Z,24.33
2023-09-18T02:26:54.141Z,24.38
2023-09-18T02:29:25.318Z,24.36
2023-09-18T02:31:55.622Z,24.32
2023-09-18T02:34:25.839Z,24.29
2023-09-18T02:36:56.256Z,24.25
2023-09-18T02:39:26.458Z,24.24
2023-09-18T02:41:57.188Z,24.25
2023-09-18T02:44:27.286Z,24.14
2023-09-18T02:46:57.617Z,24.08
2023-09-18T02:49:27.813Z,24.15
2023-09-18T02:51:58.159Z,24.12
2023-09-18T02:54:29.112Z,24.07
2023-09-18T02:56:59.386Z,24.09
2023-09-18T02:59:29.664Z,24.08
2023-09-18T03:02:00.159Z,24.11
2023-09-18T03:04:32.834Z,24.08
2023-09-18T03:07:03.927Z,24.02
2023-09-18T03:09:34.189Z,23.91
2023-09-18T03:12:04.831Z,23.87
2023-09-18T03:14:35.087Z,23.81
2023-09-18T03:17:05.619Z,23.75
2023-09-18T03:19:35.621Z,23.73
2023-09-18T03:22:06.069Z,23.78
2023-09-18T03:24:36.725Z,23.84
2023-09-18T03:27:06.869Z,23.87
2023-09-18T03:29:37.354Z,23.88
2023-09-18T03:32:07.866Z,23.94
2023-09-18T03:34:39.323Z,23.88
2023-09-18T03:37:10.689Z,23.84
2023-09-18T03:39:40.924Z,23.74
2023-09-18T03:42:11.118Z,23.67
2023-09-18T03:44:41.410Z,23.68
2023-09-18T03:47:11.732Z,23.75
2023-09-18T03:49:41.884Z,23.75
2023-09-18T03:52:12.411Z,23.68
2023-09-18T03:54:42.647Z,23.63
2023-09-18T03:57:12.911Z,23.64
2023-09-18T03:59:45.617Z,23.71
2023-09-18T04:02:15.996Z,23.60
2023-09-18T04:04:46.331Z,23.50
2023-09-18T04:07:18.798Z,23.54
2023-09-18T04:09:49.279Z,23.64
2023-09-18T04:12:19.957Z,23.75
2023-09-18T04:14:50.137Z,23.82
2023-09-18T04:17:20.583Z,23.84
2023-09-18T04:19:50.809Z,23.85
2023-09-18T04:22:21.013Z,23.97
2023-09-18T04:24:51.308Z,24.05
2023-09-18T04:27:21.540Z,24.00
2023-09-18T04:29:51.815Z,24.05
2023-09-18T04:32:22.155Z,24.01
2023-09-18T04:34:52.383Z,24.05
2023-09-18T04:37:22.898Z,23.98
2023-09-18T04:39:53.115Z,23.82
2023-09-18T04:42:23.269Z,23.71
2023-09-18T04:44:53.460Z,23.80
2023-09-18T04:47:23.720Z,23.88
2023-09-18T04:49:53.984Z,23.97
2023-09-18T04:52:24.705Z,24.01
2023-09-18T04:54:56.456Z,24.01
2023-09-18T04:57:26.683Z,24.02
2023-09-18T05:00:14.351Z,24.02
2023-09-18T05:02:47.264Z,24.04
2023-09-18T05:05:17.673Z,24.00
2023-09-18T05:07:48.049Z,23.98
2023-09-18T05:10:18.833Z,23.94
2023-09-18T05:12:49.137Z,23.97
2023-09-18T05:15:19.411Z,23.94
2023-09-18T05:17:54.350Z,24.01
2023-09-18T05:20:26.372Z,24.02
2023-09-18T05:22:57.557Z,24.02
2023-09-18T05:25:27.978Z,24.02
2023-09-18T05:28:01.959Z,24.04
2023-09-18T05:30:36.435Z,24.05
2023-09-18T05:33:07.551Z,24.05
2023-09-18T05:35:38.951Z,24.02
2023-09-18T05:38:09.166Z,24.07
2023-09-18T05:40:39.568Z,24.12
2023-09-18T05:43:10.521Z,24.12
2023-09-18T05:45:41.323Z,24.08
2023-09-18T05:48:11.901Z,24.08
2023-09-18T05:50:44.086Z,24.02
2023-09-18T05:53:14.758Z,24.02
2023-09-18T05:55:45.021Z,24.04
2023-09-18T05:58:16.246Z,24.01
2023-09-18T06:00:45.938Z,24.02
2023-09-18T06:03:17.350Z,24.00
2023-09-18T06:05:47.698Z,23.96
2023-09-18T06:08:18.051Z,23.93
2023-09-18T06:10:48.351Z,23.96
2023-09-18T06:13:18.549Z,23.90
2023-09-18T06:15:48.759Z,23.90
2023-09-18T06:18:19.016Z,23.88
2023-09-18T06:20:52.976Z,23.87
2023-09-18T06:23:23.187Z,23.88
2023-09-18T06:25:58.385Z,23.91
2023-09-18T06:28:28.581Z,24.02
2023-09-18T06:30:58.938Z,23.96
2023-09-18T06:33:29.366Z,23.93
2023-09-18T06:35:59.584Z,23.87
2023-09-18T06:38:29.773Z,23.87
2023-09-18T06:41:00.071Z,23.81
2023-09-18T06:43:30.320Z,23.80
2023-09-18T06:46:00.573Z,23.80
2023-09-18T06:48:34.567Z,23.80
2023-09-18T06:51:04.848Z,23.85
2023-09-18T06:53:35.657Z,23.90
2023-09-18T06:56:07.264Z,23.93
2023-09-18T06:58:37.797Z,23.94
2023-09-18T07:01:11.949Z,23.97
2023-09-18T07:03:43.109Z,24.02
2023-09-18T07:06:13.753Z,24.00
2023-09-18T07:08:45.082Z,24.00
2023-09-18T07:11:15.498Z,23.90
2023-09-18T07:13:46.240Z,23.82
2023-09-18T07:16:16.754Z,23.81
2023-09-18T07:18:47.095Z,23.75
2023-09-18T07:21:18.541Z,23.80
2023-09-18T07:23:50.926Z,23.80
2023-09-18T07:26:21.212Z,23.93
2023-09-18T07:28:51.941Z,23.87
2023-09-18T07:31:22.538Z,23.82
2023-09-18T07:33:55.735Z,23.88
2023-09-18T07:36:27.158Z,24.01
2023-09-18T07:39:01.090Z,24.11
2023-09-18T07:41:31.502Z,24.14
2023-09-18T07:44:01.850Z,24.12
2023-09-18T07:46:32.453Z,24.26
2023-09-18T07:49:02.748Z,24.24
2023-09-18T07:51:33.021Z,24.21
2023-09-18T07:54:03.785Z,24.08
2023-09-18T07:56:36.823Z,24.01
2023-09-18T07:59:07.566Z,23.93
2023-09-18T08:01:37.969Z,23.82
2023-09-18T08:04:08.378Z,23.78
2023-09-18T08:06:40.043Z,23.73
2023-09-18T08:09:12.614Z,23.68
2023-09-18T08:11:47.594Z,23.70
2023-09-18T08:14:19.655Z,23.82
2023-09-18T08:16:49.910Z,23.85
2023-09-18T08:19:22.310Z,24.00
2023-09-18T08:21:54.265Z,24.00
2023-09-18T08:24:25.266Z,23.98
2023-09-18T08:26:56.620Z,23.97
2023-09-18T08:29:27.472Z,23.93
2023-09-18T08:31:59.277Z,23.87
2023-09-18T08:34:29.918Z,23.85
2023-09-18T08:37:00.315Z,23.81
2023-09-18T08:39:30.767Z,23.81
2023-09-18T08:42:06.228Z,23.80
2023-09-18T08:44:41.323Z,23.80
2023-09-18T08:47:14.469Z,23.77
2023-09-18T08:49:45.214Z,23.68
2023-09-18T08:52:17.184Z,23.66
2023-09-18T08:54:48.818Z,23.67
2023-09-18T08:57:19.196Z,23.64
2023-09-18T08:59:53.266Z,23.64
2023-09-18T09:02:23.482Z,23.57
2023-09-18T09:04:53.777Z,23.51
2023-09-18T09:07:24.048Z,23.50
2023-09-18T09:09:54.331Z,23.47
2023-09-18T09:12:59.518Z,23.42
2023-09-18T09:15:34.248Z,23.42
2023-09-18T09:18:11.393Z,23.37
2023-09-18T09:20:42.208Z,23.36
2023-09-18T09:23:13.386Z,23.36
2023-09-18T09:25:43.658Z,23.40
2023-09-18T09:28:14.473Z,23.39
2023-09-18T09:30:45.059Z,23.33
2023-09-18T09:33:15.587Z,23.29
2023-09-18T09:35:46.241Z,23.27
2023-09-18T09:38:18.308Z,23.29
2023-09-18T09:40:48.651Z,23.30
2023-09-18T09:43:20.453Z,23.23
2023-09-18T09:45:51.228Z,23.22
2023-09-18T09:48:23.152Z,23.19
2023-09-18T09:50:54.079Z,23.16
2023-09-18T09:53:50.954Z,23.23
2023-09-18T09:56:24.659Z,23.16
2023-09-18T09:59:06.561Z,23.16
2023-09-18T10:01:38.013Z,23.16
2023-09-18T10:04:14.015Z,23.24
2023-09-18T10:06:47.316Z,23.31
2023-09-18T10:09:20.146Z,23.30
2023-09-18T10:11:55.541Z,23.29
2023-09-18T10:14:55.580Z,23.29
2023-09-18T10:17:35.077Z,23.36
2023-09-18T10:20:13.036Z,23.45
2023-09-18T10:22:49.059Z,23.58
2023-09-18T10:25:30.971Z,23.70
2023-09-18T10:28:05.017Z,23.75
2023-09-18T10:30:38.162Z,23.90
2023-09-18T10:33:09.929Z,24.04
2023-09-18T10:35:41.259Z,24.18
2023-09-18T10:38:13.223Z,24.38
2023-09-18T10:40:44.011Z,24.47
2023-09-18T10:43:17.010Z,24.66
2023-09-18T10:45:48.155Z,25.02
2023-09-18T10:48:18.646Z,25.13
2023-09-18T10:50:49.213Z,25.20
2023-09-18T10:53:22.772Z,25.50
2023-09-18T10:55:53.727Z,25.68
2023-09-18T10:58:28.271Z,25.77
2023-09-18T11:00:59.796Z,25.89
2023-09-18T11:03:30.219Z,26.03
2023-09-18T11:06:13.261Z,26.19
2023-09-18T11:08:46.559Z,26.33
2023-09-18T11:11:17.161Z,26.37
2023-09-18T11:13:52.221Z,26.50
2023-09-18T11:16:40.711Z,26.84
2023-09-18T11:19:16.313Z,27.01
2023-09-18T11:21:47.958Z,27.16
2023-09-18T11:24:24.937Z,27.42
2023-09-18T11:26:55.575Z,27.59
2023-09-18T11:29:29.163Z,27.65
2023-09-18T11:32:06.203Z,27.73
2023-09-18T11:34:41.328Z,27.85
2023-09-18T11:37:28.016Z,27.92
2023-09-18T11:39:59.201Z,28.18
2023-09-18T11:42:30.568Z,28.23
2023-09-18T11:45:01.627Z,28.45
2023-09-18T11:47:32.161Z,28.65
2023-09-18T11:50:05.213Z,28.91
2023-09-18T11:52:37.804Z,29.23
2023-09-18T11:55:10.403Z,29.64
2023-09-18T11:57:41.135Z,29.97
2023-09-18T12:00:24.977Z,30.11
2023-09-18T12:02:55.236Z,29.96
2023-09-18T12:05:28.974Z,29.76
2023-09-18T12:07:59.749Z,29.77
2023-09-18T12:10:30.569Z,29.80
2023-09-18T12:13:01.005Z,29.93
2023-09-18T12:15:32.175Z,30.15
2023-09-18T12:18:09.157Z,30.41
2023-09-18T12:20:41.816Z,30.76
2023-09-18T12:23:12.227Z,31.12
2023-09-18T12:25:43.110Z,31.34
2023-09-18T12:28:13.451Z,31.55
2023-09-18T12:30:44.247Z,30.74
2023-09-18T12:33:14.978Z,30.25
2023-09-18T12:35:45.415Z,29.96
2023-09-18T12:38:29.003Z,29.81
2023-09-18T12:41:08.070Z,29.54
2023-09-18T12:43:43.777Z,29.05
2023-09-18T12:46:14.857Z,28.71
2023-09-18T12:48:48.588Z,28.27
2023-09-18T12:51:24.814Z,28.17
2023-09-18T12:54:03.143Z,28.10
2023-09-18T12:56:33.344Z,27.88
2023-09-18T12:59:12.605Z,27.74
2023-09-18T13:01:48.666Z,27.43
2023-09-18T13:04:19.154Z,27.16
2023-09-18T13:06:49.592Z,26.73
2023-09-18T13:09:25.089Z,26.61
2023-09-18T13:11:59.439Z,26.61
2023-09-18T13:14:29.667Z,26.65
2023-09-18T13:17:08.729Z,26.59
2023-09-18T13:19:39.270Z,26.50
2023-09-18T13:22:09.472Z,26.54
2023-09-18T13:24:40.087Z,26.74
2023-09-18T13:27:10.308Z,26.74
2023-09-18T13:29:40.328Z,26.87
2023-09-18T13:32:10.551Z,26.80
2023-09-18T13:34:41.570Z,26.60
2023-09-18T13:37:11.888Z,26.54
2023-09-18T13:39:42.070Z,26.61
2023-09-18T13:42:12.237Z,26.36
2023-09-18T13:44:42.411Z,26.16
2023-09-18T13:47:12.600Z,25.81
2023-09-18T13:49:42.719Z,26.03
2023-09-18T13:52:12.667Z,26.06
2023-09-18T13:54:49.989Z,25.93
2023-09-18T13:57:21.207Z,26.22
2023-09-18T13:59:52.451Z,26.16
2023-09-18T14:02:23.303Z,26.10
2023-09-18T14:04:53.502Z,26.15
2023-09-18T14:07:24.668Z,26.23
2023-09-18T14:09:54.398Z,26.22
2023-09-18T14:12:24.446Z,26.43
2023-09-18T14:14:54.590Z,26.54
2023-09-18T14:17:24.856Z,26.71
2023-09-18T14:19:55.921Z,27.08
2023-09-18T14:22:25.676Z,27.14
2023-09-18T14:24:56.570Z,27.21
2023-09-18T14:27:26.742Z,27.41
2023-09-18T14:29:56.744Z,26.63
2023-09-18T14:32:27.347Z,26.47
2023-09-18T14:34:57.625Z,27.28
2023-09-18T14:37:27.789Z,27.97
2023-09-18T14:39:57.759Z,28.06
2023-09-18T14:42:27.699Z,28.17
2023-09-18T14:44:58.003Z,27.45
2023-09-18T14:47:28.438Z,27.49
2023-09-18T14:50:00.665Z,27.94
2023-09-18T14:52:31.181Z,27.90
2023-09-18T14:55:05.779Z,27.92
2023-09-18T14:57:35.990Z,27.83
2023-09-18T15:00:08.420Z,28.06
2023-09-18T15:02:39.032Z,27.94
2023-09-18T15:05:12.620Z,27.49
2023-09-18T15:07:42.800Z,27.02
2023-09-18T15:10:13.041Z,27.14
2023-09-18T15:12:44.477Z,27.07
2023-09-18T15:15:14.610Z,27.56
2023-09-18T15:17:44.538Z,28.03
2023-09-18T15:20:15.212Z,27.90
2023-09-18T15:22:45.469Z,28.44
2023-09-18T15:25:15.444Z,28.48
2023-09-18T15:27:46.337Z,28.75
2023-09-18T15:30:17.278Z,28.13
2023-09-18T15:32:55.464Z,27.78
2023-09-18T15:35:27.106Z,27.56
2023-09-18T15:37:57.381Z,27.08
2023-09-18T15:40:27.508Z,27.04
2023-09-18T15:42:57.704Z,27.11
2023-09-18T15:45:27.947Z,27.30
2023-09-18T15:47:58.383Z,27.59
2023-09-18T15:50:28.696Z,28.16
2023-09-18T15:52:58.985Z,28.14
2023-09-18T15:55:29.029Z,28.34
2023-09-18T15:57:58.928Z,29.09
2023-09-18T16:00:29.186Z,28.87
2023-09-18T16:02:59.707Z,29.27
2023-09-18T16:05:29.870Z,28.82
2023-09-18T16:08:06.043Z,27.83
2023-09-18T16:10:36.795Z,27.46
2023-09-18T16:13:06.777Z,27.18
2023-09-18T16:15:36.673Z,26.87
2023-09-18T16:18:07.474Z,26.61
2023-09-18T16:20:37.729Z,26.23
2023-09-18T16:23:07.613Z,26.01
2023-09-18T16:25:37.426Z,25.88
2023-09-18T16:28:08.586Z,25.69
2023-09-18T16:30:38.677Z,25.50
2023-09-18T16:33:08.590Z,25.40
2023-09-18T16:35:39.214Z,25.33
2023-09-18T16:38:10.154Z,25.17
2023-09-18T16:40:40.232Z,25.06
2023-09-18T16:43:11.149Z,24.99
2023-09-18T16:45:44.601Z,24.93
2023-09-18T16:48:14.894Z,24.72
2023-09-18T16:50:46.110Z,23.93
2023-09-18T16:53:17.732Z,23.17
2023-09-18T16:55:47.892Z,22.94
2023-09-18T16:58:18.045Z,22.94
2023-09-18T17:00:48.173Z,22.99
2023-09-18T17:03:18.960Z,23.05
2023-09-18T17:05:49.242Z,23.08
2023-09-18T17:08:19.434Z,23.10
2023-09-18T17:10:50.696Z,23.09
2023-09-18T17:13:20.998Z,22.79
2023-09-18T17:15:52.117Z,22.69
2023-09-18T17:18:22.852Z,22.51
2023-09-18T17:20:53.617Z,22.48
2023-09-18T17:23:24.699Z,22.43
2023-09-18T17:25:54.883Z,22.38
2023-09-18T17:28:25.063Z,22.35
2023-09-18T17:30:55.216Z,22.35
2023-09-18T17:33:25.771Z,22.30
2023-09-18T17:35:55.910Z,22.17
2023-09-18T17:38:27.115Z,21.82
2023-09-18T17:40:56.715Z,21.69
2023-09-18T17:43:26.538Z,21.69
2023-09-18T17:45:56.803Z,21.79
2023-09-18T17:48:27.080Z,21.76
2023-09-18T17:50:57.407Z,21.73
2023-09-18T17:53:27.933Z,21.60
2023-09-18T17:55:59.572Z,21.63
2023-09-18T17:58:29.778Z,21.55
2023-09-18T18:00:59.983Z,21.50
2023-09-18T18:03:30.810Z,21.47
2023-09-18T18:06:01.524Z,21.45
2023-09-18T18:11:05.795Z,21.46
2023-09-18T18:13:35.514Z,21.50
2023-09-18T18:16:07.153Z,21.50
2023-09-18T18:18:39.879Z,21.59
2023-09-18T18:21:10.105Z,21.62
2023-09-18T18:23:40.536Z,21.72
2023-09-18T18:26:12.640Z,21.77
2023-09-18T18:28:42.784Z,21.63
2023-09-18T18:31:14.549Z,21.62
2023-09-18T18:33:45.028Z,21.72
2023-09-18T18:36:15.478Z,21.83
2023-09-18T18:38:45.745Z,21.85
2023-09-18T18:41:15.891Z,21.87
2023-09-18T18:43:48.190Z,21.98
2023-09-18T18:46:18.450Z,21.97
2023-09-18T18:48:48.806Z,21.89
2023-09-18T18:51:20.384Z,21.87
2023-09-18T18:53:51.141Z,21.86
2023-09-18T18:56:21.578Z,21.86
2023-09-18T18:58:51.966Z,21.87
2023-09-18T19:01:26.560Z,21.89
2023-09-18T19:03:58.065Z,22.04
2023-09-18T19:06:28.609Z,22.06
2023-09-18T19:09:01.128Z,22.11
2023-09-18T19:11:31.957Z,22.17
2023-09-18T19:14:02.664Z,22.14
2023-09-18T19:16:33.305Z,22.20
2023-09-18T19:19:04.009Z,22.27
2023-09-18T19:21:36.175Z,22.25
2023-09-18T19:24:06.932Z,22.33
2023-09-18T19:26:37.240Z,22.51
2023-09-18T19:29:07.487Z,22.52
2023-09-18T19:31:37.664Z,22.52
2023-09-18T19:34:10.331Z,22.55
2023-09-18T19:36:40.477Z,22.37
2023-09-18T19:39:11.021Z,22.27
2023-09-18T19:41:41.659Z,22.20
2023-09-18T19:44:11.966Z,22.30
2023-09-18T19:46:42.158Z,22.31
2023-09-18T19:49:12.398Z,22.30
2023-09-18T19:51:42.669Z,22.41
2023-09-18T19:54:16.991Z,22.48
2023-09-18T19:56:47.263Z,22.38
2023-09-18T19:59:17.407Z,22.25
2023-09-18T20:01:50.907Z,22.20
2023-09-18T20:04:21.608Z,22.22
2023-09-18T20:06:55.028Z,22.30
2023-09-18T20:09:25.490Z,22.24
2023-09-18T20:11:55.941Z,22.22
2023-09-18T20:14:32.169Z,22.16
2023-09-18T20:17:02.772Z,22.17
2023-09-18T20:19:32.946Z,22.14
2023-09-18T20:22:05.029Z,22.08
2023-09-18T20:24:35.259Z,22.08
2023-09-18T20:27:05.622Z,22.07
2023-09-18T20:29:36.166Z,22.06
2023-09-18T20:32:06.754Z,22.06
2023-09-18T20:34:37.271Z,22.04
2023-09-18T20:37:09.052Z,21.98
2023-09-18T20:39:39.408Z,21.96
2023-09-18T20:42:09.719Z,21.98
2023-09-18T20:44:39.918Z,21.92
2023-09-18T20:47:10.223Z,21.76
2023-09-18T20:49:45.038Z,21.83
2023-09-18T20:52:15.163Z,21.86
2023-09-18T20:54:46.384Z,21.83
2023-09-18T20:57:16.093Z,21.85
2023-09-18T20:59:46.618Z,21.79
2023-09-18T21:02:16.914Z,21.79
2023-09-18T21:04:47.614Z,21.75
2023-09-18T21:07:17.625Z,21.70
2023-09-18T21:09:48.771Z,21.73
2023-09-18T21:12:21.793Z,21.75
2023-09-18T21:14:52.647Z,21.75
2023-09-18T21:17:22.902Z,21.72
2023-09-18T21:19:53.217Z,21.69
2023-09-18T21:22:23.352Z,21.60
2023-09-18T21:24:53.666Z,21.56
2023-09-18T21:27:24.554Z,21.53
2023-09-18T21:29:54.861Z,21.52
2023-09-18T21:32:25.677Z,21.55
2023-09-18T21:34:56.209Z,21.52
2023-09-18T21:37:26.458Z,21.50
2023-09-18T21:39:56.851Z,21.49
2023-09-18T21:42:26.977Z,21.45
2023-09-18T21:44:57.001Z,21.46
2023-09-18T21:47:27.252Z,21.47
2023-09-18T21:49:57.820Z,21.35
2023-09-18T21:52:28.068Z,21.11
2023-09-18T21:54:59.023Z,21.01
2023-09-18T21:57:29.177Z,20.87
2023-09-18T22:00:00.399Z,20.80
2023-09-18T22:02:31.349Z,20.71
2023-09-18T22:05:01.842Z,20.68
2023-09-18T22:07:32.893Z,20.51
2023-09-18T22:10:03.370Z,20.39
2023-09-18T22:12:33.791Z,20.15
2023-09-18T22:15:14.798Z,20.08
2023-09-18T22:17:45.614Z,20.12
2023-09-18T22:20:16.670Z,20.16
2023-09-18T22:22:49.888Z,20.17
2023-09-18T22:25:20.684Z,20.20
2023-09-18T22:27:51.795Z,20.26
2023-09-18T22:30:23.601Z,20.19
2023-09-18T22:32:53.851Z,20.13
2023-09-18T22:35:25.232Z,20.13
2023-09-18T22:38:04.441Z,20.10
2023-09-18T22:40:35.553Z,20.09
2023-09-18T22:43:43.104Z,20.06
2023-09-18T22:46:51.598Z,20.09
2023-09-18T22:49:59.852Z,20.10
2023-09-18T22:52:49.590Z,20.12
2023-09-18T22:55:22.571Z,20.05
2023-09-18T22:57:57.252Z,20.06
2023-09-18T23:00:32.143Z,20.06
2023-09-18T23:03:12.216Z,20.09
2023-09-18T23:05:43.768Z,20.00
2023-09-18T23:08:18.599Z,19.90
2023-09-18T23:10:50.769Z,19.86
2023-09-18T23:13:22.533Z,19.86
2023-09-18T23:15:54.186Z,19.87
2023-09-18T23:18:25.916Z,19.93
2023-09-18T23:20:58.630Z,19.90
2023-09-18T23:23:33.229Z,19.85
2023-09-18T23:26:05.011Z,19.89
2023-09-18T23:28:40.011Z,19.83
2023-09-18T23:31:13.173Z,19.82
2023-09-18T23:33:48.660Z,19.81
2023-09-18T23:36:20.492Z,19.83
2023-09-18T23:38:52.164Z,19.83
2023-09-18T23:41:31.884Z,19.82
2023-09-18T23:44:19.299Z,19.86
2023-09-18T23:46:54.044Z,19.81
2023-09-18T23:49:25.736Z,19.79
2023-09-18T23:52:05.121Z,19.81
2023-09-18T23:54:36.689Z,19.87
2023-09-18T23:57:10.820Z,19.90
2023-09-18T23:59:42.545Z,19.85
